LiveATC.Net - Listen to live air traffic control over the Internet!


ICAO: KPVU  IATA: PVU   Airport: Provo Municipal Airport
City: Provo   State/Province: Utah
Country: United States   Continent: North America
KPVU METAR Weather: KPVU 060956Z AUTO 14014KT 10SM CLR 23/09 A3002 RMK AO2 SLP096 T02330089
KPVU Flight Activity (FlightAware)
KPVU Airport Info   (iFlightPlanner)
KPVU VFR Sectional Chart   (iFlightPlanner) 
KPVU IFR Low Altitude Chart   (iFlightPlanner) 
KPVU IFR High Altitude Chart   (iFlightPlanner) 

KPVU Tower
Feed Status: UP   Listeners: 0
Listen in your browser - HTML5 player (in browser, HTML5)
Click here to listen with your own player (launches your MP3 player)
Archive Access: KPVU Tower
FacilityFrequency
Provo Tower125.300

NOTICE

Unauthorized use prohibited. See LiveATC.net Terms of Service


Airport/ARTCC Code
Frequency Search
(e.g., 124.400, 128.75)
Site-wide search
 


Browse Feeds
Top 50 Feeds
HF Oceanic Feeds
Coverage Map
Bad Weather Areas

LiveATC FAQ
Offer LiveATC feed
Contact LiveATC.net
Press Inquiries

LiveATC on iPhone
LiveATC on Android

LiveATC Mobile
(Mobile browser)

ATC Audio Archives
Interesting Recordings

LiveATC Forums


Home Page
About LiveATC.net


Terms of Use
Privacy Policy

AIRMETs/SIGMETs

FAA Airport Status
NAS Status
Arrival Demand


Server Software By:
Icecast.org
Liquidsoap